createdAt,value
2019-01-27T00:00:53.639Z,86.93
2019-01-27T00:03:22.499Z,86.91
2019-01-27T00:05:50.275Z,87.17
2019-01-27T00:08:17.961Z,87.08
2019-01-27T00:10:45.632Z,87.74
2019-01-27T00:13:13.378Z,87.85
2019-01-27T00:15:41.019Z,87.43
2019-01-27T00:18:08.729Z,87.53
2019-01-27T00:20:36.448Z,87.54
2019-01-27T00:23:04.217Z,87.20
2019-01-27T00:25:31.882Z,87.44
2019-01-27T00:27:59.578Z,87.22
2019-01-27T00:30:27.288Z,87.16
2019-01-27T00:32:54.985Z,87.18
2019-01-27T00:35:22.737Z,87.35
2019-01-27T00:37:50.538Z,87.17
2019-01-27T00:40:18.377Z,87.05
2019-01-27T00:42:46.070Z,86.76
2019-01-27T00:45:15.007Z,86.83
2019-01-27T00:47:43.823Z,86.81
2019-01-27T00:50:13.127Z,86.96
2019-01-27T00:52:40.689Z,86.91
2019-01-27T00:55:12.063Z,87.38
2019-01-27T00:57:39.729Z,87.35
2019-01-27T01:00:09.082Z,87.06
2019-01-27T01:02:36.685Z,86.72
2019-01-27T01:05:05.233Z,86.78
2019-01-27T01:07:33.238Z,87.26
2019-01-27T01:10:01.400Z,86.99
2019-01-27T01:12:29.171Z,87.10
2019-01-27T01:14:56.897Z,87.24
2019-01-27T01:17:24.592Z,87.29
2019-01-27T01:19:52.448Z,87.62
2019-01-27T01:22:20.149Z,87.27
2019-01-27T01:24:48.007Z,87.35
2019-01-27T01:27:15.854Z,87.63
2019-01-27T01:29:43.665Z,88.16
2019-01-27T01:32:11.369Z,88.04
2019-01-27T01:34:39.020Z,88.00
2019-01-27T01:37:06.705Z,87.68
2019-01-27T01:39:34.335Z,87.83
2019-01-27T01:42:02.048Z,87.65
2019-01-27T01:44:29.636Z,87.68
2019-01-27T01:46:57.294Z,87.58
2019-01-27T01:49:24.861Z,87.57
2019-01-27T01:51:52.482Z,87.69
2019-01-27T01:54:20.057Z,88.15
2019-01-27T01:56:47.770Z,88.18
2019-01-27T01:59:15.345Z,88.44
2019-01-27T02:01:43.004Z,88.40
2019-01-27T02:04:10.594Z,88.34
2019-01-27T02:06:38.346Z,88.27
2019-01-27T02:09:10.068Z,87.80
2019-01-27T02:11:38.562Z,88.14
2019-01-27T02:14:06.674Z,88.30
2019-01-27T02:16:34.361Z,88.47
2019-01-27T02:19:03.101Z,88.41
2019-01-27T02:21:30.725Z,88.43
2019-01-27T02:23:58.343Z,88.97
2019-01-27T02:26:26.011Z,89.12
2019-01-27T02:28:53.613Z,89.24
2019-01-27T02:31:21.341Z,89.33
2019-01-27T02:33:48.950Z,89.29
2019-01-27T02:36:16.603Z,89.10
2019-01-27T02:38:44.228Z,89.07
2019-01-27T02:41:11.985Z,88.67
2019-01-27T02:43:39.759Z,88.42
2019-01-27T02:46:08.494Z,88.44
2019-01-27T02:48:36.176Z,88.34
2019-01-27T02:51:04.623Z,88.59
2019-01-27T02:53:32.385Z,88.84
2019-01-27T02:56:00.060Z,88.92
2019-01-27T02:58:27.790Z,88.91
2019-01-27T03:00:55.447Z,88.52
2019-01-27T03:03:23.168Z,88.70
2019-01-27T03:06:13.203Z,88.92
2019-01-27T03:08:48.772Z,88.66
2019-01-27T03:11:16.620Z,89.07
2019-01-27T03:13:44.426Z,89.55
2019-01-27T03:16:12.913Z,89.53
2019-01-27T03:18:40.702Z,89.22
2019-01-27T03:21:08.332Z,89.23
2019-01-27T03:23:37.903Z,89.10
2019-01-27T03:26:05.810Z,88.92
2019-01-27T03:28:33.419Z,88.89
2019-01-27T03:31:02.835Z,89.12
2019-01-27T03:33:30.645Z,89.40
2019-01-27T03:35:58.285Z,89.47
2019-01-27T03:38:25.886Z,89.29
2019-01-27T03:40:53.539Z,88.92
2019-01-27T03:43:23.204Z,88.84
2019-01-27T03:45:51.039Z,88.61
2019-01-27T03:48:18.642Z,88.71
2019-01-27T03:50:46.310Z,88.87
2019-01-27T03:53:13.899Z,88.76
2019-01-27T03:55:41.566Z,88.58
2019-01-27T03:58:09.199Z,88.74
2019-01-27T04:00:36.957Z,88.87
2019-01-27T04:03:04.595Z,89.01
2019-01-27T04:05:33.425Z,89.00
2019-01-27T04:08:01.022Z,89.11
2019-01-27T04:10:28.742Z,88.84
2019-01-27T04:12:56.462Z,88.89
2019-01-27T04:15:24.063Z,89.20
2019-01-27T04:17:51.747Z,89.69
2019-01-27T04:20:19.794Z,89.94
2019-01-27T04:22:47.732Z,89.89
2019-01-27T04:25:16.448Z,89.61
2019-01-27T04:27:44.337Z,89.68
2019-01-27T04:30:31.462Z,89.45
2019-01-27T04:32:59.156Z,89.18
2019-01-27T04:35:26.860Z,88.90
2019-01-27T04:37:54.507Z,88.93
2019-01-27T04:40:22.253Z,88.92
2019-01-27T04:42:50.149Z,89.07
2019-01-27T04:45:23.043Z,89.14
2019-01-27T04:47:52.361Z,89.17
2019-01-27T04:50:20.186Z,89.36
2019-01-27T04:52:47.855Z,89.58
2019-01-27T04:55:15.708Z,89.30
2019-01-27T04:57:43.463Z,89.51
2019-01-27T05:00:14.134Z,89.61
2019-01-27T05:02:46.688Z,89.80
2019-01-27T05:05:14.522Z,89.78
2019-01-27T05:07:42.339Z,89.69
2019-01-27T05:10:10.267Z,89.50
2019-01-27T05:12:37.950Z,89.59
2019-01-27T05:15:08.483Z,90.19
2019-01-27T05:17:36.071Z,90.49
2019-01-27T05:20:05.513Z,90.47
2019-01-27T05:22:33.129Z,90.76
2019-01-27T05:25:00.818Z,91.04
2019-01-27T05:27:28.408Z,90.72
2019-01-27T05:29:56.458Z,90.56
2019-01-27T05:32:24.049Z,90.28
2019-01-27T05:34:51.767Z,90.09
2019-01-27T05:37:19.361Z,89.87
2019-01-27T05:39:47.137Z,89.92
2019-01-27T05:42:14.849Z,89.76
2019-01-27T05:44:42.497Z,90.29
2019-01-27T05:47:10.058Z,90.37
2019-01-27T05:49:37.698Z,90.09
2019-01-27T05:52:05.385Z,89.97
2019-01-27T05:54:32.969Z,89.72
2019-01-27T05:57:00.686Z,90.01
2019-01-27T05:59:28.284Z,90.03
2019-01-27T06:01:55.912Z,90.03
2019-01-27T06:04:23.531Z,90.52
2019-01-27T06:06:51.219Z,90.30
2019-01-27T06:09:20.465Z,89.91
2019-01-27T06:11:48.093Z,89.82
2019-01-27T06:14:15.700Z,89.67
2019-01-27T06:16:43.415Z,89.80
2019-01-27T06:19:11.210Z,89.45
2019-01-27T06:21:39.036Z,89.32
2019-01-27T06:24:06.634Z,89.21
2019-01-27T06:26:34.347Z,89.05
2019-01-27T06:29:01.993Z,88.86
2019-01-27T06:31:31.584Z,88.81
2019-01-27T06:34:05.958Z,89.29
2019-01-27T06:36:33.583Z,89.55
2019-01-27T06:39:01.809Z,89.58
2019-01-27T06:41:31.221Z,89.05
2019-01-27T06:43:58.915Z,88.79
2019-01-27T06:46:26.714Z,88.78
2019-01-27T06:48:54.412Z,88.99
2019-01-27T06:51:22.214Z,89.58
2019-01-27T06:53:49.985Z,89.44
2019-01-27T06:56:19.465Z,89.83
2019-01-27T06:59:05.411Z,89.39
2019-01-27T07:01:52.862Z,89.41
2019-01-27T07:04:39.990Z,89.33
2019-01-27T07:07:25.650Z,89.23
2019-01-27T07:10:27.677Z,89.12
2019-01-27T07:13:06.725Z,88.68
2019-01-27T07:16:08.985Z,88.13
2019-01-27T07:18:54.529Z,87.33
2019-01-27T07:21:59.683Z,87.64
2019-01-27T07:24:50.067Z,86.99
2019-01-27T07:27:36.732Z,86.90
2019-01-27T07:30:29.618Z,86.67
2019-01-27T07:33:09.133Z,85.61
2019-01-27T07:35:48.933Z,84.73
2019-01-27T07:38:36.133Z,84.54
2019-01-27T07:41:23.068Z,84.52
2019-01-27T07:44:11.369Z,84.33
2019-01-27T07:47:01.441Z,84.08
2019-01-27T07:50:00.793Z,84.15
2019-01-27T07:52:47.606Z,84.49
2019-01-27T07:55:44.187Z,84.24
2019-01-27T07:58:49.246Z,83.50
2019-01-27T08:01:27.501Z,82.94
2019-01-27T08:04:32.946Z,82.38
2019-01-27T08:07:25.991Z,82.15
2019-01-27T08:10:18.945Z,81.63
2019-01-27T08:12:57.115Z,81.31
2019-01-27T08:15:50.068Z,80.89
2019-01-27T08:18:37.383Z,80.38
2019-01-27T08:21:11.519Z,80.87
2019-01-27T08:23:56.540Z,80.81
2019-01-27T08:26:31.839Z,79.82
2019-01-27T08:29:12.692Z,80.33
2019-01-27T08:31:59.968Z,80.49
2019-01-27T08:34:35.580Z,80.56
2019-01-27T08:37:28.694Z,79.96
2019-01-27T08:40:07.402Z,79.47
2019-01-27T08:43:00.714Z,79.24
2019-01-27T08:46:06.045Z,78.99
2019-01-27T08:48:33.719Z,78.95
2019-01-27T08:51:01.442Z,78.25
2019-01-27T08:53:29.061Z,78.12
2019-01-27T08:55:56.736Z,77.55
2019-01-27T08:58:24.617Z,77.34
2019-01-27T09:01:07.581Z,77.92
2019-01-27T09:03:57.258Z,77.98
2019-01-27T09:06:35.467Z,77.77
2019-01-27T09:09:37.780Z,77.51
2019-01-27T09:12:21.323Z,77.41
2019-01-27T09:15:11.479Z,77.08
2019-01-27T09:18:07.674Z,76.81
2019-01-27T09:20:54.780Z,75.71
2019-01-27T09:23:56.837Z,74.68
2019-01-27T09:26:33.197Z,74.24
2019-01-27T09:29:13.652Z,73.31
2019-01-27T09:32:00.796Z,72.89
2019-01-27T09:35:07.411Z,72.80
2019-01-27T09:38:13.076Z,72.38
2019-01-27T09:40:59.366Z,73.22
2019-01-27T09:43:44.931Z,73.50
2019-01-27T09:46:35.267Z,73.45
2019-01-27T09:49:25.602Z,73.44
2019-01-27T09:52:03.170Z,73.88
2019-01-27T09:54:49.689Z,73.26
2019-01-27T09:57:40.336Z,71.90
2019-01-27T10:00:44.245Z,71.07
2019-01-27T10:03:35.874Z,71.28
2019-01-27T10:06:12.832Z,71.52
2019-01-27T10:08:59.272Z,71.19
2019-01-27T10:11:38.073Z,70.83
2019-01-27T10:14:29.219Z,70.43
2019-01-27T10:17:22.212Z,71.11
2019-01-27T10:20:08.466Z,71.16
2019-01-27T10:22:58.908Z,69.06
2019-01-27T10:25:46.223Z,69.06
2019-01-27T10:28:32.527Z,69.82
2019-01-27T10:31:18.708Z,70.45
2019-01-27T10:34:02.174Z,71.39
2019-01-27T10:36:40.358Z,71.17
2019-01-27T10:39:27.136Z,71.16
2019-01-27T10:42:19.278Z,70.84
2019-01-27T10:45:16.385Z,71.53
2019-01-27T10:48:09.484Z,71.31
2019-01-27T10:51:05.405Z,72.66
2019-01-27T10:53:58.988Z,72.24
2019-01-27T10:56:34.540Z,72.60
2019-01-27T10:59:13.477Z,72.02
2019-01-27T11:01:52.771Z,72.49
2019-01-27T11:04:37.556Z,72.66
2019-01-27T11:07:22.363Z,72.92
2019-01-27T11:10:12.707Z,73.44
2019-01-27T11:12:58.434Z,72.32
2019-01-27T11:15:42.562Z,72.01
2019-01-27T11:18:33.050Z,72.24
2019-01-27T11:21:26.018Z,72.62
2019-01-27T11:24:01.020Z,72.36
2019-01-27T11:26:54.244Z,73.49
2019-01-27T11:29:35.765Z,73.02
2019-01-27T11:32:23.366Z,72.82
2019-01-27T11:35:10.848Z,73.03
2019-01-27T11:37:57.018Z,72.96
2019-01-27T11:40:34.230Z,72.71
2019-01-27T11:43:25.020Z,72.63
2019-01-27T11:46:10.951Z,72.40
2019-01-27T11:48:46.341Z,72.78
2019-01-27T11:51:37.974Z,72.86
2019-01-27T11:54:05.890Z,72.42
2019-01-27T11:56:33.926Z,72.26
2019-01-27T11:59:02.183Z,72.02
2019-01-27T12:01:30.570Z,72.20
2019-01-27T12:03:58.591Z,72.31
2019-01-27T12:06:26.398Z,72.21
2019-01-27T12:08:54.514Z,72.26
2019-01-27T12:11:22.610Z,72.70
2019-01-27T12:13:53.720Z,72.56
2019-01-27T12:16:21.591Z,72.75
2019-01-27T12:18:49.881Z,72.44
2019-01-27T12:21:17.595Z,72.74
2019-01-27T12:23:45.496Z,73.23
2019-01-27T12:26:13.250Z,72.88
2019-01-27T12:28:41.555Z,72.74
2019-01-27T12:31:09.403Z,71.84
2019-01-27T12:33:37.512Z,71.64
2019-01-27T12:36:05.836Z,72.35
2019-01-27T12:38:33.857Z,73.15
2019-01-27T12:41:01.697Z,73.04
2019-01-27T12:43:29.457Z,73.17
2019-01-27T12:45:57.349Z,72.90
2019-01-27T12:48:25.703Z,72.53
2019-01-27T12:50:53.710Z,71.83
2019-01-27T12:53:21.754Z,71.18
2019-01-27T12:55:49.831Z,71.87
2019-01-27T12:58:18.869Z,71.54
2019-01-27T13:00:50.462Z,71.65
2019-01-27T13:03:18.520Z,70.84
2019-01-27T13:05:47.793Z,70.57
2019-01-27T13:08:15.522Z,69.94
2019-01-27T13:10:43.328Z,71.07
2019-01-27T13:13:12.160Z,70.82
2019-01-27T13:15:40.099Z,69.69
2019-01-27T13:18:08.201Z,69.53
2019-01-27T13:20:36.115Z,69.97
2019-01-27T13:23:04.414Z,69.95
2019-01-27T13:25:32.276Z,69.07
2019-01-27T13:28:00.216Z,68.96
2019-01-27T13:30:28.122Z,69.31
2019-01-27T13:32:55.952Z,69.44
2019-01-27T13:35:23.847Z,68.78
2019-01-27T13:37:52.813Z,68.26
2019-01-27T13:40:21.361Z,67.93
2019-01-27T13:42:49.399Z,68.09
2019-01-27T13:45:20.044Z,68.41
2019-01-27T13:47:48.196Z,67.91
2019-01-27T13:50:16.279Z,68.31
2019-01-27T13:52:44.565Z,69.04
2019-01-27T13:55:18.472Z,68.74
2019-01-27T13:57:46.597Z,69.30
2019-01-27T14:00:19.244Z,68.60
2019-01-27T14:02:47.480Z,68.63
2019-01-27T14:05:15.591Z,68.85
2019-01-27T14:07:44.546Z,69.14
2019-01-27T14:10:15.293Z,69.09
2019-01-27T14:12:43.299Z,67.93
2019-01-27T14:15:14.546Z,67.01
2019-01-27T14:17:42.538Z,67.85
2019-01-27T14:20:12.305Z,67.53
2019-01-27T14:22:40.329Z,67.49
2019-01-27T14:25:09.461Z,67.52
2019-01-27T14:27:37.605Z,67.57
2019-01-27T14:30:07.887Z,66.83
2019-01-27T14:32:36.092Z,66.90
2019-01-27T14:35:05.133Z,67.21
2019-01-27T14:37:33.357Z,67.35
2019-01-27T14:40:01.387Z,67.07
2019-01-27T14:42:29.449Z,65.94
2019-01-27T14:44:57.474Z,66.27
2019-01-27T14:47:25.658Z,65.90
2019-01-27T14:49:53.862Z,66.46
2019-01-27T14:52:21.831Z,66.91
2019-01-27T14:54:49.929Z,68.00
2019-01-27T14:57:17.892Z,68.52
2019-01-27T14:59:45.817Z,68.78
2019-01-27T15:02:13.682Z,68.81
2019-01-27T15:04:41.944Z,68.66
2019-01-27T15:07:09.658Z,69.73
2019-01-27T15:09:37.376Z,69.78
2019-01-27T15:12:05.232Z,69.92
2019-01-27T15:14:33.024Z,71.21
2019-01-27T15:17:00.985Z,70.54
2019-01-27T15:19:28.645Z,70.38
2019-01-27T15:21:56.295Z,70.79
2019-01-27T15:24:23.923Z,72.03
2019-01-27T15:26:51.713Z,72.42
2019-01-27T15:29:19.359Z,72.35
2019-01-27T15:31:47.073Z,72.69
2019-01-27T15:34:14.900Z,72.86
2019-01-27T15:36:45.643Z,72.98
2019-01-27T15:39:13.231Z,73.04
2019-01-27T15:41:40.964Z,73.68
2019-01-27T15:44:08.611Z,73.78
2019-01-27T15:46:36.412Z,74.50
2019-01-27T15:49:04.322Z,74.07
2019-01-27T15:51:32.508Z,74.80
2019-01-27T15:54:00.326Z,75.03
2019-01-27T15:56:28.047Z,74.57
2019-01-27T15:58:56.982Z,75.30
2019-01-27T16:01:24.841Z,75.35
2019-01-27T16:03:52.615Z,75.29
2019-01-27T16:06:20.284Z,76.11
2019-01-27T16:08:48.062Z,76.21
2019-01-27T16:11:15.817Z,76.44
2019-01-27T16:13:45.992Z,76.45
2019-01-27T16:16:13.740Z,76.63
2019-01-27T16:18:41.631Z,76.42
2019-01-27T16:21:09.400Z,76.35
2019-01-27T16:23:44.568Z,76.61
2019-01-27T16:26:14.160Z,77.70
2019-01-27T16:28:41.955Z,77.54
2019-01-27T16:31:34.427Z,78.82
2019-01-27T16:34:10.315Z,78.87
2019-01-27T16:36:38.218Z,78.83
2019-01-27T16:39:09.862Z,80.40
2019-01-27T16:41:37.557Z,80.06
2019-01-27T16:44:05.426Z,80.53
2019-01-27T16:46:33.285Z,81.08
2019-01-27T16:49:00.998Z,80.27
2019-01-27T16:51:28.734Z,82.41
2019-01-27T16:53:56.470Z,80.81
2019-01-27T16:56:24.251Z,80.49
2019-01-27T16:58:51.952Z,80.40
2019-01-27T17:01:19.705Z,80.54
2019-01-27T17:03:47.514Z,80.68
2019-01-27T17:06:15.397Z,81.43
2019-01-27T17:08:43.204Z,81.02
2019-01-27T17:11:10.964Z,81.12
2019-01-27T17:13:39.611Z,80.65
2019-01-27T17:16:07.602Z,80.91
2019-01-27T17:18:36.739Z,81.42
2019-01-27T17:21:04.797Z,81.20
2019-01-27T17:23:32.491Z,81.56
2019-01-27T17:26:00.122Z,81.58
2019-01-27T17:28:27.928Z,81.74
2019-01-27T17:30:56.535Z,81.37
2019-01-27T17:33:24.605Z,81.18
2019-01-27T17:35:52.205Z,81.66
2019-01-27T17:38:19.899Z,81.94
2019-01-27T17:40:47.525Z,81.85
2019-01-27T17:43:15.200Z,82.26
2019-01-27T17:45:42.845Z,82.27
2019-01-27T17:48:10.712Z,81.87
2019-01-27T17:50:38.388Z,82.04
2019-01-27T17:53:11.451Z,82.54
2019-01-27T17:55:40.358Z,82.28
2019-01-27T17:58:27.422Z,82.07
2019-01-27T18:01:29.797Z,82.70
2019-01-27T18:04:06.693Z,82.72
2019-01-27T18:06:44.943Z,82.83
2019-01-27T18:09:19.781Z,82.46
2019-01-27T18:11:51.610Z,82.71
2019-01-27T18:14:47.086Z,82.96
2019-01-27T18:17:16.644Z,82.98
2019-01-27T18:19:53.232Z,82.74
2019-01-27T18:22:25.477Z,82.74
2019-01-27T18:24:59.793Z,82.74
2019-01-27T18:27:28.288Z,82.33
2019-01-27T18:29:55.890Z,82.31
2019-01-27T18:32:31.603Z,82.28
2019-01-27T18:34:59.189Z,82.02
2019-01-27T18:37:26.885Z,82.21
2019-01-27T18:39:54.801Z,81.67
2019-01-27T18:42:22.486Z,81.58
2019-01-27T18:44:50.199Z,81.57
2019-01-27T18:47:17.942Z,81.54
2019-01-27T18:49:45.645Z,82.56
2019-01-27T18:52:13.481Z,82.99
2019-01-27T18:54:49.554Z,82.95
2019-01-27T18:57:39.585Z,82.87
2019-01-27T19:00:17.351Z,82.49
2019-01-27T19:03:16.484Z,82.24
2019-01-27T19:05:56.235Z,82.60
2019-01-27T19:08:44.100Z,82.56
2019-01-27T19:11:31.416Z,82.68
2019-01-27T19:14:36.622Z,82.52
2019-01-27T19:17:21.283Z,82.93
2019-01-27T19:19:58.603Z,82.55
2019-01-27T19:22:45.838Z,82.82
2019-01-27T19:25:36.167Z,82.86
2019-01-27T19:28:26.270Z,82.97
2019-01-27T19:31:03.081Z,82.62
2019-01-27T19:33:39.496Z,82.59
2019-01-27T19:36:44.777Z,82.55
2019-01-27T19:39:26.334Z,82.86
2019-01-27T19:42:04.948Z,83.24
2019-01-27T19:44:44.750Z,83.36
2019-01-27T19:47:30.913Z,83.34
2019-01-27T19:50:19.956Z,83.16
2019-01-27T19:53:03.575Z,83.26
2019-01-27T19:55:42.619Z,83.18
2019-01-27T19:58:18.048Z,83.32
2019-01-27T20:01:23.335Z,83.46
2019-01-27T20:04:14.840Z,83.28
2019-01-27T20:07:00.670Z,83.67
2019-01-27T20:09:44.660Z,83.17
2019-01-27T20:12:30.866Z,82.86
2019-01-27T20:15:14.626Z,83.44
2019-01-27T20:18:06.352Z,83.59
2019-01-27T20:20:56.546Z,83.61
2019-01-27T20:23:43.700Z,83.67
2019-01-27T20:26:51.609Z,83.68
2019-01-27T20:29:35.755Z,83.88
2019-01-27T20:32:28.869Z,83.62
2019-01-27T20:35:36.209Z,83.83
2019-01-27T20:38:35.589Z,83.64
2019-01-27T20:41:41.158Z,83.88
2019-01-27T20:44:16.501Z,84.21
2019-01-27T20:46:52.010Z,84.57
2019-01-27T20:49:37.836Z,84.77
2019-01-27T20:52:23.940Z,84.54
2019-01-27T20:55:26.517Z,84.31
2019-01-27T20:58:23.378Z,84.45
2019-01-27T21:01:13.696Z,84.52
2019-01-27T21:04:32.289Z,84.74
2019-01-27T21:07:50.492Z,84.74
2019-01-27T21:10:37.991Z,85.35
2019-01-27T21:13:23.451Z,85.83
2019-01-27T21:16:06.621Z,85.76
2019-01-27T21:18:39.192Z,85.62
2019-01-27T21:21:06.815Z,85.59
2019-01-27T21:23:34.505Z,85.67
2019-01-27T21:26:05.014Z,85.48
2019-01-27T21:28:32.661Z,85.65
2019-01-27T21:31:00.381Z,85.63
2019-01-27T21:33:28.402Z,85.56
2019-01-27T21:35:56.165Z,85.46
2019-01-27T21:38:23.956Z,85.38
2019-01-27T21:40:51.633Z,85.15
2019-01-27T21:43:20.157Z,85.19
2019-01-27T21:45:47.843Z,85.47
2019-01-27T21:48:15.417Z,85.39
2019-01-27T21:50:43.082Z,85.57
2019-01-27T21:53:10.791Z,85.43
2019-01-27T21:55:38.522Z,85.42
2019-01-27T21:58:06.327Z,85.61
2019-01-27T22:00:34.025Z,85.65
2019-01-27T22:03:01.783Z,85.84
2019-01-27T22:05:29.571Z,85.94
2019-01-27T22:07:57.339Z,85.91
2019-01-27T22:10:25.094Z,86.10
2019-01-27T22:12:52.875Z,86.02
2019-01-27T22:15:20.691Z,86.38
2019-01-27T22:17:48.411Z,86.46
2019-01-27T22:20:16.127Z,86.55
2019-01-27T22:22:43.907Z,86.67
2019-01-27T22:25:12.888Z,86.92
2019-01-27T22:27:41.802Z,87.55
2019-01-27T22:30:15.724Z,86.90
2019-01-27T22:32:43.514Z,87.46
2019-01-27T22:35:11.519Z,87.46
2019-01-27T22:37:39.334Z,87.09
2019-01-27T22:40:08.388Z,87.00
2019-01-27T22:42:37.077Z,86.61
2019-01-27T22:45:08.564Z,86.31
2019-01-27T22:47:36.158Z,86.81
2019-01-27T22:50:05.700Z,87.54
2019-01-27T22:52:33.297Z,87.59
2019-01-27T22:55:00.905Z,87.86
2019-01-27T22:57:28.585Z,89.10
2019-01-27T22:59:56.316Z,89.36
2019-01-27T23:02:26.702Z,90.27
2019-01-27T23:04:54.673Z,91.78
2019-01-27T23:07:22.258Z,91.82
2019-01-27T23:09:51.815Z,91.92
2019-01-27T23:12:19.518Z,92.21
2019-01-27T23:14:50.026Z,92.32
2019-01-27T23:17:17.681Z,92.36
2019-01-27T23:19:45.410Z,92.04
2019-01-27T23:22:13.034Z,92.07
2019-01-27T23:24:40.752Z,91.84
2019-01-27T23:27:08.498Z,91.83
2019-01-27T23:29:36.167Z,91.90
2019-01-27T23:32:03.954Z,92.57
2019-01-27T23:34:31.702Z,93.03
2019-01-27T23:36:59.557Z,93.33
2019-01-27T23:39:27.346Z,93.28
2019-01-27T23:41:55.018Z,93.42
2019-01-27T23:44:22.740Z,93.32
2019-01-27T23:46:50.501Z,93.38
2019-01-27T23:49:18.216Z,93.23
2019-01-27T23:51:45.960Z,93.88
2019-01-27T23:54:13.695Z,93.87
2019-01-27T23:56:41.390Z,93.95
2019-01-27T23:59:09.060Z,94.27
